createdAt,value
2017-09-13T00:02:23.059Z,1.87
2017-09-13T00:04:51.404Z,3.63
2017-09-13T00:07:19.731Z,2.10
2017-09-13T00:09:48.841Z,1.90
2017-09-13T00:12:17.930Z,1.30
2017-09-13T00:14:47.072Z,1.13
2017-09-13T00:17:15.399Z,2.33
2017-09-13T00:19:44.510Z,1.87
2017-09-13T00:22:13.599Z,5.17
2017-09-13T00:24:42.687Z,4.80
2017-09-13T00:27:11.037Z,3.80
2017-09-13T00:29:39.359Z,1.87
2017-09-13T00:32:08.447Z,1.03
2017-09-13T00:34:36.790Z,2.37
2017-09-13T00:37:05.114Z,2.73
2017-09-13T00:39:34.207Z,2.63
2017-09-13T00:42:03.317Z,1.33
2017-09-13T00:44:32.401Z,3.77
2017-09-13T00:47:00.758Z,1.23
2017-09-13T00:49:29.078Z,2.63
2017-09-13T00:51:58.180Z,3.00
2017-09-13T00:54:27.298Z,2.97
2017-09-13T00:56:55.617Z,2.07
2017-09-13T00:59:23.967Z,4.03
2017-09-13T01:01:52.315Z,1.00
2017-09-13T01:04:20.671Z,2.00
2017-09-13T01:06:48.994Z,2.67
2017-09-13T01:09:17.319Z,2.03
2017-09-13T01:11:45.667Z,3.53
2017-09-13T01:14:13.983Z,2.10
2017-09-13T01:16:42.319Z,2.47
2017-09-13T01:19:10.666Z,2.40
2017-09-13T01:21:39.751Z,3.63
2017-09-13T01:24:08.098Z,3.27
2017-09-13T01:26:36.421Z,2.03
2017-09-13T01:29:04.767Z,6.73
2017-09-13T01:31:33.123Z,2.77
2017-09-13T01:34:01.440Z,4.20
2017-09-13T01:36:29.759Z,2.87
2017-09-13T01:38:58.098Z,3.33
2017-09-13T01:41:26.434Z,4.60
2017-09-13T01:43:54.774Z,3.07
2017-09-13T01:46:23.858Z,3.27
2017-09-13T01:48:52.180Z,4.23
2017-09-13T01:51:20.523Z,6.13
2017-09-13T01:53:48.851Z,4.80
2017-09-13T01:56:17.194Z,4.27
2017-09-13T01:58:46.274Z,3.10
2017-09-13T02:01:14.619Z,4.30
2017-09-13T02:03:42.933Z,5.17
2017-09-13T02:06:11.251Z,3.90
2017-09-13T02:08:39.586Z,1.97
2017-09-13T02:11:07.906Z,7.63
2017-09-13T02:13:36.986Z,4.33
2017-09-13T02:16:06.091Z,3.30
2017-09-13T02:18:35.174Z,3.90
2017-09-13T02:21:03.521Z,3.23
2017-09-13T02:23:31.842Z,3.50
2017-09-13T02:26:00.942Z,4.67
2017-09-13T02:28:30.055Z,3.73
2017-09-13T02:30:58.383Z,2.57
2017-09-13T02:33:26.698Z,3.10
2017-09-13T02:35:55.804Z,4.93
2017-09-13T02:38:24.890Z,4.10
2017-09-13T02:40:53.982Z,5.80
2017-09-13T02:43:22.320Z,6.50
2017-09-13T02:45:50.646Z,6.20
2017-09-13T02:48:19.763Z,4.70
2017-09-13T02:50:48.842Z,6.27
2017-09-13T02:53:17.955Z,6.30
2017-09-13T02:55:47.043Z,3.50
2017-09-13T02:58:16.126Z,5.40
2017-09-13T03:00:44.470Z,5.80
2017-09-13T03:03:12.787Z,4.93
2017-09-13T03:05:41.129Z,1.97
2017-09-13T03:08:09.446Z,4.47
2017-09-13T03:10:37.777Z,1.93
2017-09-13T03:13:06.121Z,3.20
2017-09-13T03:15:35.202Z,1.70
2017-09-13T03:18:03.547Z,4.00
2017-09-13T03:20:31.862Z,3.10
2017-09-13T03:23:00.189Z,5.13
2017-09-13T03:25:28.540Z,8.00
2017-09-13T03:27:57.622Z,6.63
2017-09-13T03:30:25.940Z,3.27
2017-09-13T03:32:55.170Z,7.20
2017-09-13T03:35:23.493Z,5.07
2017-09-13T03:37:52.578Z,5.43
2017-09-13T03:40:20.922Z,3.47
2017-09-13T03:42:49.242Z,5.73
2017-09-13T03:45:18.343Z,5.67
2017-09-13T03:47:47.458Z,4.13
2017-09-13T03:50:16.544Z,5.87
2017-09-13T03:52:45.655Z,3.40
2017-09-13T03:55:13.977Z,4.50
2017-09-13T03:57:42.293Z,5.33
2017-09-13T04:00:11.474Z,4.40
2017-09-13T04:02:39.790Z,3.13
2017-09-13T04:05:08.874Z,6.03
2017-09-13T04:07:37.981Z,4.27
2017-09-13T04:10:07.070Z,6.33
2017-09-13T04:12:36.195Z,5.70
2017-09-13T04:15:04.521Z,6.77
2017-09-13T04:17:32.838Z,5.73
2017-09-13T04:20:01.947Z,5.53
2017-09-13T04:22:30.270Z,6.23
2017-09-13T04:24:58.609Z,5.17
2017-09-13T04:27:26.925Z,3.80
2017-09-13T04:29:55.250Z,6.10
2017-09-13T04:32:24.355Z,4.47
2017-09-13T04:34:53.445Z,8.73
2017-09-13T04:37:22.526Z,5.27
2017-09-13T04:39:50.866Z,6.03
2017-09-13T04:42:19.182Z,4.63
2017-09-13T04:44:47.528Z,5.40
2017-09-13T04:47:15.867Z,3.67
2017-09-13T04:49:44.979Z,4.23
2017-09-13T04:52:13.309Z,6.60
2017-09-13T04:54:42.630Z,6.17
2017-09-13T04:57:11.031Z,6.17
2017-09-13T04:59:40.113Z,5.33
2017-09-13T05:02:09.224Z,4.07
2017-09-13T05:04:38.307Z,3.90
2017-09-13T05:07:07.414Z,4.73
2017-09-13T05:09:36.494Z,3.23
2017-09-13T05:12:04.807Z,2.23
2017-09-13T05:14:33.153Z,4.87
2017-09-13T05:17:01.485Z,4.40
2017-09-13T05:19:29.803Z,4.53
2017-09-13T05:21:58.146Z,3.90
2017-09-13T05:24:26.468Z,2.97
2017-09-13T05:26:54.838Z,5.23
2017-09-13T05:29:23.156Z,2.57
2017-09-13T05:31:52.283Z,6.57
2017-09-13T05:34:20.598Z,3.20
2017-09-13T05:36:49.010Z,1.83
2017-09-13T05:39:18.114Z,3.63
2017-09-13T05:41:47.261Z,6.27
2017-09-13T05:44:15.609Z,4.03
2017-09-13T05:46:43.922Z,2.03
2017-09-13T05:49:12.286Z,3.10
2017-09-13T05:51:40.598Z,6.07
2017-09-13T05:54:08.962Z,4.00
2017-09-13T05:56:37.310Z,2.63
2017-09-13T05:59:05.623Z,5.23
2017-09-13T06:01:33.969Z,7.43
2017-09-13T06:04:02.286Z,4.83
2017-09-13T06:06:30.606Z,4.70
2017-09-13T06:08:59.710Z,2.60
2017-09-13T06:11:28.792Z,3.07
2017-09-13T06:13:57.902Z,2.73
2017-09-13T06:16:26.987Z,6.87
2017-09-13T06:18:56.131Z,4.03
2017-09-13T06:21:24.430Z,1.80
2017-09-13T06:23:52.778Z,2.57
2017-09-13T06:26:21.094Z,3.63
2017-09-13T06:28:49.409Z,3.30
2017-09-13T06:31:18.523Z,4.70
2017-09-13T06:33:46.838Z,3.13
2017-09-13T06:36:15.155Z,5.13
2017-09-13T06:38:43.494Z,1.00
2017-09-13T06:41:11.811Z,1.90
2017-09-13T06:43:40.130Z,3.27
2017-09-13T06:46:08.474Z,4.17
2017-09-13T06:48:36.790Z,1.40
2017-09-13T06:51:05.110Z,1.80
2017-09-13T06:53:33.468Z,2.20
2017-09-13T06:56:01.789Z,2.23
2017-09-13T06:58:30.109Z,2.10
2017-09-13T07:00:58.452Z,1.83
2017-09-13T07:03:26.774Z,1.63
2017-09-13T07:05:55.086Z,1.00
2017-09-13T07:08:23.428Z,2.60
2017-09-13T07:10:51.745Z,3.33
2017-09-13T07:13:20.058Z,1.53
2017-09-13T07:15:49.167Z,0.80
2017-09-13T07:18:18.250Z,2.20
2017-09-13T07:20:47.336Z,1.17
2017-09-13T07:23:15.682Z,0.80
2017-09-13T07:25:44.013Z,1.67
2017-09-13T07:28:13.126Z,3.70
2017-09-13T07:30:41.447Z,1.33
2017-09-13T07:33:09.777Z,1.23
2017-09-13T07:35:38.886Z,1.77
2017-09-13T07:38:07.206Z,1.53
2017-09-13T07:40:35.551Z,2.83
2017-09-13T07:43:03.870Z,2.70
2017-09-13T07:45:32.220Z,2.63
2017-09-13T07:48:00.534Z,1.03
2017-09-13T07:50:28.851Z,0.83
2017-09-13T07:52:57.955Z,0.40
2017-09-13T07:55:27.047Z,0.50
2017-09-13T07:57:56.155Z,0.87
2017-09-13T08:00:24.470Z,0.50
2017-09-13T08:02:52.786Z,1.27
2017-09-13T08:05:21.131Z,0.60
2017-09-13T08:07:49.445Z,0.90
2017-09-13T08:10:17.767Z,1.80
2017-09-13T08:12:46.107Z,0.90
2017-09-13T08:15:14.422Z,1.03
2017-09-13T08:17:42.739Z,0.77
2017-09-13T08:20:11.085Z,0.87
2017-09-13T08:22:39.403Z,0.40
2017-09-13T08:25:07.753Z,0.67
2017-09-13T08:27:36.066Z,1.27
2017-09-13T08:30:04.390Z,0.30
2017-09-13T08:32:32.731Z,0.80
2017-09-13T08:35:01.056Z,1.13
2017-09-13T08:37:29.398Z,0.53
2017-09-13T08:39:57.714Z,1.13
2017-09-13T08:42:26.034Z,1.53
2017-09-13T08:44:54.379Z,0.90
2017-09-13T08:47:22.699Z,0.90
2017-09-13T08:49:51.051Z,0.30
2017-09-13T08:52:19.366Z,0.40
2017-09-13T08:54:47.682Z,2.00
2017-09-13T08:57:16.799Z,1.93
2017-09-13T08:59:45.118Z,1.07
2017-09-13T09:02:13.440Z,3.20
2017-09-13T09:04:41.783Z,2.43
2017-09-13T09:07:10.097Z,2.57
2017-09-13T09:09:39.173Z,2.63
2017-09-13T09:12:07.517Z,2.50
2017-09-13T09:14:35.838Z,1.97
2017-09-13T09:17:04.922Z,2.13
2017-09-13T09:19:33.262Z,2.70
2017-09-13T09:22:01.579Z,1.40
2017-09-13T09:24:29.900Z,3.87
2017-09-13T09:26:58.248Z,0.80
2017-09-13T09:29:26.562Z,1.90
2017-09-13T09:31:54.904Z,2.33
2017-09-13T09:34:23.218Z,0.70
2017-09-13T09:36:51.530Z,2.40
2017-09-13T09:39:19.874Z,3.30
2017-09-13T09:41:48.191Z,2.80
2017-09-13T09:44:16.511Z,2.90
2017-09-13T09:46:45.618Z,2.50
2017-09-13T09:49:14.695Z,1.90
2017-09-13T09:51:43.042Z,2.50
2017-09-13T09:54:11.358Z,3.40
2017-09-13T09:56:39.674Z,3.43
2017-09-13T09:59:08.791Z,4.53
2017-09-13T10:01:37.107Z,3.77
2017-09-13T10:04:05.445Z,3.07
2017-09-13T10:06:33.764Z,5.93
2017-09-13T10:09:02.114Z,3.73
2017-09-13T10:11:30.430Z,6.17
2017-09-13T10:13:58.754Z,9.43
2017-09-13T10:16:27.110Z,2.53
2017-09-13T10:18:56.191Z,8.53
2017-09-13T10:21:24.532Z,3.40
2017-09-13T10:23:52.846Z,4.10
2017-09-13T10:26:21.163Z,4.07
2017-09-13T10:28:49.498Z,4.33
2017-09-13T10:31:17.850Z,6.43
2017-09-13T10:33:46.197Z,2.47
2017-09-13T10:36:15.263Z,4.03
2017-09-13T10:38:43.603Z,2.50
2017-09-13T10:41:11.949Z,3.87
2017-09-13T10:43:41.030Z,2.90
2017-09-13T10:46:09.356Z,4.23
2017-09-13T10:48:37.695Z,2.00
2017-09-13T10:51:06.774Z,2.27
2017-09-13T10:53:35.094Z,3.33
2017-09-13T10:56:03.426Z,3.97
2017-09-13T10:58:31.742Z,2.33
2017-09-13T11:01:00.827Z,2.80
2017-09-13T11:03:29.939Z,4.40
2017-09-13T11:05:59.037Z,1.40
2017-09-13T11:08:27.394Z,2.13
2017-09-13T11:10:55.716Z,5.07
2017-09-13T11:13:24.068Z,2.17
2017-09-13T11:15:53.150Z,7.00
2017-09-13T11:18:21.465Z,4.50
2017-09-13T11:20:49.803Z,3.43
2017-09-13T11:23:18.886Z,1.53
2017-09-13T11:25:47.239Z,1.47
2017-09-13T11:28:15.558Z,2.13
2017-09-13T11:30:43.878Z,0.77
2017-09-13T11:33:12.214Z,0.87
2017-09-13T11:35:40.534Z,0.63
2017-09-13T11:38:09.618Z,1.10
2017-09-13T11:40:38.731Z,1.03
2017-09-13T11:43:07.810Z,1.17
2017-09-13T11:45:36.918Z,1.53
2017-09-13T11:48:05.998Z,3.73
2017-09-13T11:50:34.323Z,1.17
2017-09-13T11:53:02.662Z,4.20
2017-09-13T11:55:31.751Z,3.13
2017-09-13T11:58:00.080Z,2.13
2017-09-13T12:00:28.423Z,2.80
2017-09-13T12:02:57.502Z,5.50
2017-09-13T12:05:25.848Z,1.90
2017-09-13T12:07:54.198Z,1.43
2017-09-13T12:10:22.514Z,2.03
2017-09-13T12:12:50.829Z,1.80
2017-09-13T12:15:19.172Z,0.97
2017-09-13T12:17:47.486Z,1.60
2017-09-13T12:20:15.806Z,5.00
2017-09-13T12:22:44.148Z,3.30
2017-09-13T12:25:12.468Z,4.23
2017-09-13T12:27:40.789Z,4.60
2017-09-13T12:30:09.134Z,1.50
2017-09-13T12:32:37.454Z,1.50
2017-09-13T12:35:05.798Z,2.67
2017-09-13T12:37:34.119Z,2.17
2017-09-13T12:40:02.443Z,1.57
2017-09-13T12:42:30.792Z,3.03
2017-09-13T12:44:59.882Z,1.70
2017-09-13T12:47:28.194Z,2.63
2017-09-13T12:49:56.526Z,2.53
2017-09-13T12:52:24.890Z,1.37
2017-09-13T12:54:53.237Z,4.13
2017-09-13T12:57:21.558Z,1.40
2017-09-13T12:59:49.878Z,4.40
2017-09-13T13:02:18.978Z,3.83
2017-09-13T13:04:48.086Z,9.43
2017-09-13T13:07:16.402Z,3.37
2017-09-13T13:09:44.752Z,1.00
2017-09-13T13:12:13.066Z,1.50
2017-09-13T13:14:41.376Z,7.30
2017-09-13T13:17:10.496Z,2.00
2017-09-13T13:19:39.574Z,0.80
2017-09-13T13:22:07.923Z,1.77
2017-09-13T13:24:36.251Z,8.20
2017-09-13T13:27:05.343Z,5.23
2017-09-13T13:29:34.453Z,2.10
2017-09-13T13:32:03.532Z,2.23
2017-09-13T13:34:32.642Z,1.50
2017-09-13T13:37:01.726Z,1.90
2017-09-13T13:39:30.811Z,1.60
2017-09-13T13:41:59.150Z,1.07
2017-09-13T13:44:27.469Z,2.43
2017-09-13T13:46:55.806Z,2.70
2017-09-13T13:49:24.115Z,2.73
2017-09-13T13:51:52.482Z,2.40
2017-09-13T13:54:20.813Z,2.40
2017-09-13T13:56:49.924Z,2.30
2017-09-13T13:59:18.251Z,1.50
2017-09-13T14:01:46.574Z,2.50
2017-09-13T14:04:15.680Z,2.13
2017-09-13T14:06:44.763Z,0.90
2017-09-13T14:09:13.877Z,2.03
2017-09-13T14:11:42.194Z,2.13
2017-09-13T14:14:10.510Z,1.30
2017-09-13T14:16:38.858Z,3.10
2017-09-13T14:19:07.169Z,0.70
2017-09-13T14:21:35.519Z,3.00
2017-09-13T14:24:03.851Z,2.77
2017-09-13T14:26:32.936Z,2.10
2017-09-13T14:29:02.055Z,2.10
2017-09-13T14:31:30.374Z,3.07
2017-09-13T14:33:58.718Z,1.73
2017-09-13T14:36:27.043Z,2.30
2017-09-13T14:38:55.387Z,1.70
2017-09-13T14:41:23.704Z,1.20
2017-09-13T14:43:52.018Z,1.27
2017-09-13T14:46:21.126Z,1.37
2017-09-13T14:48:49.438Z,2.00
2017-09-13T14:51:17.782Z,1.30
2017-09-13T14:53:46.866Z,2.17
2017-09-13T14:56:15.959Z,2.17
2017-09-13T14:58:45.066Z,1.23
2017-09-13T15:01:14.148Z,0.87
2017-09-13T15:03:43.263Z,1.00
2017-09-13T15:06:12.342Z,2.50
2017-09-13T15:08:40.682Z,0.83
2017-09-13T15:11:09.014Z,2.30
2017-09-13T15:13:38.104Z,1.27
2017-09-13T15:16:07.227Z,2.83
2017-09-13T15:18:35.552Z,4.03
2017-09-13T15:21:03.907Z,3.47
2017-09-13T15:23:32.227Z,6.30
2017-09-13T15:26:00.559Z,2.83
2017-09-13T15:28:28.900Z,5.77
2017-09-13T15:30:57.221Z,5.03
2017-09-13T15:33:25.574Z,5.00
2017-09-13T15:35:54.654Z,2.90
2017-09-13T15:38:22.979Z,2.80
2017-09-13T15:40:51.327Z,8.90
2017-09-13T15:43:20.411Z,5.97
2017-09-13T15:45:48.759Z,5.43
2017-09-13T15:48:17.074Z,5.50
2017-09-13T15:50:45.402Z,7.57
2017-09-13T15:53:13.757Z,4.20
2017-09-13T15:55:42.072Z,4.47
2017-09-13T15:58:09.672Z,6.20
2017-09-13T16:00:38.116Z,6.63
2017-09-13T16:03:06.449Z,5.67
2017-09-13T16:05:35.534Z,6.97
2017-09-13T16:08:03.883Z,4.60
2017-09-13T16:10:32.214Z,7.00
2017-09-13T16:13:01.295Z,5.00
2017-09-13T16:15:30.406Z,8.03
2017-09-13T16:17:59.486Z,5.27
2017-09-13T16:20:27.806Z,6.87
2017-09-13T16:22:56.146Z,5.87
2017-09-13T16:25:24.495Z,3.63
2017-09-13T16:27:52.823Z,3.43
2017-09-13T16:30:21.932Z,7.53
2017-09-13T16:32:50.256Z,7.77
2017-09-13T16:35:18.573Z,6.17
2017-09-13T16:37:47.687Z,5.63
2017-09-13T16:40:16.002Z,8.20
2017-09-13T16:42:44.326Z,4.50
2017-09-13T16:45:13.459Z,4.33
2017-09-13T16:47:41.779Z,5.83
2017-09-13T16:50:10.113Z,8.63
2017-09-13T16:52:38.455Z,8.40
2017-09-13T16:55:06.786Z,6.93
2017-09-13T16:57:35.115Z,7.77
2017-09-13T17:00:03.475Z,6.10
2017-09-13T17:02:31.795Z,3.63
2017-09-13T17:05:00.878Z,5.20
2017-09-13T17:07:29.990Z,4.33
2017-09-13T17:09:59.072Z,5.80
2017-09-13T17:12:27.395Z,3.57
2017-09-13T17:14:55.743Z,6.53
2017-09-13T17:17:24.851Z,3.03
2017-09-13T17:19:53.937Z,6.60
2017-09-13T17:22:23.057Z,5.13
2017-09-13T17:24:51.370Z,6.67
2017-09-13T17:27:19.714Z,5.40
2017-09-13T17:29:48.031Z,4.40
2017-09-13T17:32:16.350Z,3.13
2017-09-13T17:34:45.454Z,2.40
2017-09-13T17:37:14.594Z,6.70
2017-09-13T17:39:42.914Z,2.90
2017-09-13T17:42:11.267Z,5.10
2017-09-13T17:44:39.588Z,6.03
2017-09-13T17:47:08.671Z,3.20
2017-09-13T17:49:37.027Z,3.80
2017-09-13T17:52:05.347Z,7.40
2017-09-13T17:54:34.438Z,4.30
2017-09-13T17:57:03.558Z,3.63
2017-09-13T17:59:31.974Z,5.30
2017-09-13T18:02:01.147Z,6.30
2017-09-13T18:04:29.518Z,3.60
2017-09-13T18:06:57.926Z,6.53
2017-09-13T18:09:26.353Z,8.10
2017-09-13T18:11:55.483Z,5.67
2017-09-13T18:14:24.965Z,7.97
2017-09-13T18:16:53.346Z,4.43
2017-09-13T18:19:21.700Z,7.20
2017-09-13T18:21:50.019Z,4.67
2017-09-13T18:24:18.342Z,3.70
2017-09-13T18:26:46.690Z,6.33
2017-09-13T18:29:15.008Z,7.70
2017-09-13T18:31:43.322Z,5.10
2017-09-13T18:34:11.673Z,4.40
2017-09-13T18:36:39.289Z,8.10
2017-09-13T18:39:07.603Z,9.93
2017-09-13T18:41:35.950Z,4.33
2017-09-13T18:44:04.273Z,5.07
2017-09-13T18:46:32.606Z,6.23
2017-09-13T18:49:01.909Z,4.87
2017-09-13T18:51:31.023Z,8.03
2017-09-13T18:53:59.413Z,5.07
2017-09-13T18:56:28.530Z,4.97
2017-09-13T18:58:56.846Z,4.57
2017-09-13T19:01:25.197Z,5.80
2017-09-13T19:03:53.519Z,6.30
2017-09-13T19:06:21.877Z,8.17
2017-09-13T19:08:50.207Z,4.50
2017-09-13T19:11:19.301Z,4.50
2017-09-13T19:13:48.410Z,6.60
2017-09-13T19:16:16.738Z,9.63
2017-09-13T19:18:45.091Z,4.17
2017-09-13T19:21:13.411Z,4.53
2017-09-13T19:23:41.730Z,8.83
2017-09-13T19:26:10.839Z,5.87
2017-09-13T19:28:39.167Z,4.33
2017-09-13T19:31:07.482Z,5.47
2017-09-13T19:33:36.595Z,6.60
2017-09-13T19:36:04.926Z,7.73
2017-09-13T19:38:33.291Z,6.90
2017-09-13T19:41:01.614Z,5.13
2017-09-13T19:43:30.695Z,7.83
2017-09-13T19:45:59.035Z,8.67
2017-09-13T19:48:27.363Z,13.80
2017-09-13T19:50:56.449Z,5.87
2017-09-13T19:53:24.823Z,6.60
2017-09-13T19:55:53.134Z,7.10
2017-09-13T19:58:22.214Z,5.53
2017-09-13T20:00:50.564Z,6.03
2017-09-13T20:03:19.642Z,6.90
2017-09-13T20:05:47.958Z,10.53
2017-09-13T20:08:16.300Z,7.00
2017-09-13T20:10:44.624Z,9.63
2017-09-13T20:13:12.938Z,5.97
2017-09-13T20:15:41.277Z,5.20
2017-09-13T20:18:09.590Z,7.73
2017-09-13T20:20:38.727Z,2.73
2017-09-13T20:23:07.071Z,4.20
2017-09-13T20:25:36.156Z,4.00
2017-09-13T20:28:05.239Z,4.07
2017-09-13T20:30:33.583Z,6.30
2017-09-13T20:33:01.911Z,3.97
2017-09-13T20:35:30.999Z,5.80
2017-09-13T20:37:59.338Z,7.93
2017-09-13T20:40:27.655Z,8.57
2017-09-13T20:42:55.971Z,7.10
2017-09-13T20:45:24.338Z,6.83
2017-09-13T20:47:53.438Z,7.97
2017-09-13T20:50:22.556Z,9.23
2017-09-13T20:52:50.870Z,11.30
2017-09-13T20:55:19.181Z,9.47
2017-09-13T20:57:49.519Z,8.77
2017-09-13T21:00:17.866Z,6.00
2017-09-13T21:02:46.202Z,9.10
2017-09-13T21:05:14.542Z,9.10
2017-09-13T21:07:42.867Z,4.77
2017-09-13T21:10:11.188Z,9.87
2017-09-13T21:12:39.530Z,8.40
2017-09-13T21:15:07.838Z,9.83
2017-09-13T21:17:36.177Z,8.93
2017-09-13T21:20:04.559Z,17.57
2017-09-13T21:22:32.875Z,9.90
2017-09-13T21:25:01.191Z,17.57
2017-09-13T21:27:30.311Z,12.57
2017-09-13T21:29:58.629Z,11.97
2017-09-13T21:32:26.952Z,10.30
2017-09-13T21:34:56.062Z,11.30
2017-09-13T21:37:24.392Z,7.60
2017-09-13T21:39:52.707Z,7.97
2017-09-13T21:42:21.814Z,11.63
2017-09-13T21:44:50.903Z,6.17
2017-09-13T21:47:19.983Z,8.40
2017-09-13T21:49:48.329Z,9.00
2017-09-13T21:52:16.646Z,8.33
2017-09-13T21:54:44.976Z,8.93
2017-09-13T21:57:13.320Z,7.73
2017-09-13T21:59:42.410Z,12.57
2017-09-13T22:02:11.496Z,10.67
2017-09-13T22:04:39.835Z,6.53
2017-09-13T22:07:08.155Z,5.90
2017-09-13T22:09:36.474Z,6.93
2017-09-13T22:12:04.884Z,4.80
2017-09-13T22:14:33.200Z,9.40
2017-09-13T22:17:02.284Z,7.53
2017-09-13T22:19:30.630Z,10.10
2017-09-13T22:21:58.942Z,6.73
2017-09-13T22:24:27.262Z,5.20
2017-09-13T22:26:55.599Z,7.20
2017-09-13T22:37:05.399Z,8.53
2017-09-13T22:39:33.719Z,5.60
2017-09-13T22:42:02.831Z,4.37
2017-09-13T22:44:31.148Z,6.40
2017-09-13T22:46:59.486Z,5.30
2017-09-13T22:49:27.807Z,6.67
2017-09-13T22:51:56.149Z,5.50
2017-09-13T22:54:24.464Z,6.83
2017-09-13T22:56:52.805Z,4.03
2017-09-13T22:59:21.126Z,4.97
2017-09-13T23:01:49.444Z,4.80
2017-09-13T23:04:18.561Z,2.87
2017-09-13T23:06:46.884Z,8.53
2017-09-13T23:19:29.714Z,5.97
2017-09-13T23:21:58.791Z,3.53
2017-09-13T23:24:28.078Z,2.33
2017-09-13T23:26:56.423Z,4.43
2017-09-13T23:29:24.733Z,3.07
2017-09-13T23:31:53.082Z,3.97
2017-09-13T23:34:21.394Z,2.50
2017-09-13T23:36:49.734Z,2.33
2017-09-13T23:39:18.047Z,4.70
2017-09-13T23:41:46.375Z,2.30
2017-09-13T23:44:15.478Z,4.63
2017-09-13T23:46:44.560Z,3.93
2017-09-13T23:49:12.906Z,2.30
2017-09-13T23:51:41.218Z,1.13
2017-09-13T23:54:09.535Z,3.00
2017-09-13T23:56:37.873Z,3.23
2017-09-13T23:59:06.201Z,2.00
